Beverly Hills, CA (90209)

1:37 PM PDT on September 19, 2014 (GMT -0700)
CBS Radio, Venice and Fairfax | Change Station
CLOSE
Current Station
Personal Weather Station
Location: Los Angeles, CA
Elevation: 97 ft
Nearby Weather Stations

Elev 97 ft 34.04 °N, 118.37 °W | Updated 2 minutes ago

Partly Cloudy
Partly Cloudy
78.3 °F
Feels Like 80 °F
N
6.0
Wind Variable Wind from SSW
Gusts 12.0 mph

Today
High -- | Low -- °F
--% Chance of Precip.
Yesterday
High -- | Low -- °F
Precip. -- in
6:39 AM 6:54 PM
Waning Crescent, 17% visible
Pressure 29.88 in
Visibility 10.0 miles
Clouds Clear
Heat Index 80 °F
Dew Point 65 °F
Humidity 63%
Rainfall 0.00 in
Snow Depth 0 in , 0 in , 3 in
UV 9 out of 12
Pollen 6.90 out of 12
Ozone Good
Flu Activity Not available.
METAR KSMO 191951Z 23010KT 200V260 10SM CLR 24/16 A2989 RMK AO2 SLP119 T02440156

More Conditions Fewer Conditions

Pressure 29.88 in
Visibility 10.0 miles
Clouds Clear
Heat Index 80 °F
Dew Point 65 °F
Humidity 63%
Rainfall 0.00 in
Snow Depth 0 in , 0 in , 3 in
UV 9 out of 12
Pollen 6.90 out of 12
Ozone Good
Flu Activity Not available.
METAR KSMO 191951Z 23010KT 200V260 10SM CLR 24/16 A2989 RMK AO2 SLP119 T02440156

More Conditions Fewer Conditions

10-Day Weather Forecast

Almanac

Astronomy

Sep. 19, 2014 Rise Set
Actual Time 6:39 AM PDT 6:54 PM PDT
Civil Twilight 6:14 AM PDT 7:19 PM PDT
Nautical Twilight 5:45 AM PDT 7:48 PM PDT
Astronomical Twilight 5:15 AM PDT 8:18 PM PDT
Moon 2:38 AM PDT 4:18 PM PDT
Length of Visible Light 13h 04m
Length of Day
12h 14m
Tomorrow will be 2m 6s shorter.
Waning Crescent, 17% of the Moon is Illuminated
Today
Waning Crescent
Sep 24
New
Oct 1
First Quarter
Oct 8
Full
Oct 15
Last Quarter

Today's Extremes

State Highs State Lows

Community

WunderPhotos

Upload Photos

1,754,694 photos uploaded!

WunderBlogs® & News

By Dr. Jeff Masters
Director of Meteorology, Weather Underground
By Kari Strenfel
Meteorologist, Weather Underground
By Christopher C. Burt
Weather Historian, Weather Underground
September 19, 2014
September 19, 2014
September 19, 2014

Nearby

Air Quality

  Air Quality AQ Index Pollutant
Yesterday Good
OZONE
Current Good
OZONE
Saturday Good
PM10
Saturday Good
OZONE
Saturday Good
CO
Saturday Good
NO2

Snow Depth

Station Depth Elevation
Summit Meadow 0 in 9122 ft
Leavitt Meadows 0 in 7200 ft
Leavitt Lake 0 in 9400 ft
CSS Lab 3 in 6900 ft
Burnside Lake 0 in 8139 ft

Earthquake Activity

City Distance Mag. Time & Date
Aguanga, California 101 miles 2.5 1:38 AM PDT
2014-09-19
Corcoran, California 155 miles 3.0 3:59 PM PDT
2014-09-18
Minimum magnitude displayed is 2.5.

Coastal Water Temperatures

Place Temperature
Santa Monica Pier 69.1 °F
Los Angeles, CA 66.9 °F
La Jolla, CA 69.1 °F

Nearby Weather Stations